MMMA

Details ICAO MMMA (MAM)
Name GENERAL SERVANDO CANALES INTL
Region Mexico
Timezone America/Matamoros (UTC-6.0)
Plans Departing 1
Arriving 8
Stats Elevation 25 ft / 8 m (AMSL)
Location 25.769894° -97.525310°
Runways 1
Magnetic Variation 3.772° E
Sunrise 2017-12-16 13:11:13 UTC / 2017-12-16 07:11:13 Local
Sunset 2017-12-16 23:43:17 UTC / 2017-12-16 17:43:17 Local
Advertisement - Login to hide

Runways

ID Width Length Bearing (true) Bearing (mag) Surface Threshold Offset Overrun Length
15 151 ft / 46 m 7,585 ft / 2,312 m 156.30° 152.53° Asphalt 0 ft / 0 m 185 ft / 56 m
33 151 ft / 46 m 7,585 ft / 2,312 m 336.31° 332.54° Asphalt 0 ft / 0 m 185 ft / 56 m

Map

Weather


0- 5 10 15 20 25 30 35+ Temperature / ° C

Clouds and Precipitation
Forecast for 2017-12-17 06:00 UTC. Updated an hour ago

Ground ~20,000 ft ~40,000 ft Winds

METAR

Not found

TAF

TAF AMD MMMA 170052Z 1701/1718 30005KT 5SM HZ OVC005 TEMPO 1710/1714 3SM BR BKN003 OVC005 FM171600 04010KT 5SM HZ BKN008 OVC015

Frequencies

Approach 118.00 MHz MATAMOROS APP/TWR
Warning: Do not use this data for real-world aviation or navigation. No guarantee of current accuracy is given.